Governor's Harbour, The Bahamas
Current Conditions -  °F | °C
As of 5:00 PM on Friday 28 Nov 2014 (Local Time) from MYNN Reporting Station
Scattered Clouds Scattered Clouds  
Wind Chill: 72°   Ceiling: Unl
Heat Index: 72°   Visibility: 6mi
Dew Point: 63°   Wind: 14mph
Humidity: 73%   Direction: 20°NNE
Pressure: 30.1"   Gusts: NA
Location:  25.17°N, 76.23°W
Report Text: MYNN 282100Z 02012KT 9999 SCT018 22/17 A3010
Loading
Personal Weather Stations






























Interactive Weather Map New forecast layout! Learn more

10-Day Weather Forecast

Advertisements
Track Severe Weather on mobile